createdAt,value
2017-07-02T00:02:25.365Z,8.10
2017-07-02T00:04:54.006Z,8.23
2017-07-02T00:07:22.500Z,8.23
2017-07-02T00:09:51.085Z,10.00
2017-07-02T00:12:19.736Z,9.17
2017-07-02T00:14:48.221Z,8.47
2017-07-02T00:17:18.361Z,8.63
2017-07-02T00:19:47.552Z,8.00
2017-07-02T00:22:16.001Z,9.50
2017-07-02T00:24:44.456Z,8.67
2017-07-02T00:27:12.961Z,8.37
2017-07-02T00:29:41.444Z,8.67
2017-07-02T00:32:09.998Z,7.60
2017-07-02T00:34:38.469Z,8.73
2017-07-02T00:37:07.112Z,8.63
2017-07-02T00:39:35.659Z,7.40
2017-07-02T00:42:04.680Z,7.70
2017-07-02T00:44:33.168Z,7.60
2017-07-02T00:47:01.678Z,6.63
2017-07-02T00:49:30.129Z,6.77
2017-07-02T00:51:58.716Z,6.70
2017-07-02T00:54:27.232Z,6.13
2017-07-02T00:56:56.434Z,5.13
2017-07-02T00:59:24.922Z,6.57
2017-07-02T01:01:53.873Z,4.70
2017-07-02T01:04:23.151Z,4.97
2017-07-02T01:06:51.834Z,4.90
2017-07-02T01:09:20.333Z,4.87
2017-07-02T01:11:48.815Z,4.53
2017-07-02T01:14:17.377Z,4.77
2017-07-02T01:16:45.838Z,4.83
2017-07-02T01:19:14.653Z,4.43
2017-07-02T01:21:43.169Z,4.60
2017-07-02T01:24:11.721Z,5.47
2017-07-02T01:26:40.345Z,5.03
2017-07-02T01:29:09.023Z,4.30
2017-07-02T01:31:37.883Z,4.93
2017-07-02T01:34:06.517Z,3.63
2017-07-02T01:36:34.981Z,4.50
2017-07-02T01:39:04.082Z,4.57
2017-07-02T01:41:34.466Z,5.27
2017-07-02T01:44:03.360Z,4.67
2017-07-02T01:46:31.872Z,4.00
2017-07-02T01:49:00.452Z,4.20
2017-07-02T01:51:29.636Z,4.43
2017-07-02T01:53:58.668Z,4.67
2017-07-02T01:56:27.692Z,4.87
2017-07-02T01:58:57.361Z,4.53
2017-07-02T02:01:39.655Z,4.50
2017-07-02T02:04:09.151Z,4.83
2017-07-02T02:06:39.045Z,5.03
2017-07-02T02:09:08.188Z,4.70
2017-07-02T02:11:36.785Z,4.80
2017-07-02T02:14:05.279Z,5.60
2017-07-02T02:16:34.222Z,5.37
2017-07-02T02:19:02.810Z,4.77
2017-07-02T02:21:31.409Z,5.50
2017-07-02T02:23:59.920Z,5.10
2017-07-02T02:26:28.408Z,5.10
2017-07-02T02:28:57.249Z,5.60
2017-07-02T02:31:25.969Z,5.30
2017-07-02T02:33:55.259Z,5.60
2017-07-02T02:36:23.934Z,5.03
2017-07-02T02:38:52.581Z,5.30
2017-07-02T02:41:21.812Z,5.83
2017-07-02T02:43:50.391Z,6.00
2017-07-02T02:46:18.836Z,5.10
2017-07-02T02:48:47.380Z,5.93
2017-07-02T02:51:15.873Z,5.77
2017-07-02T02:53:44.636Z,5.13
2017-07-02T02:56:13.547Z,7.03
2017-07-02T02:58:42.338Z,5.50
2017-07-02T03:01:10.825Z,5.60
2017-07-02T03:03:39.299Z,5.43
2017-07-02T03:06:07.815Z,5.30
2017-07-02T03:08:36.561Z,5.00
2017-07-02T03:11:06.115Z,5.30
2017-07-02T03:13:34.995Z,5.00
2017-07-02T03:16:03.621Z,5.23
2017-07-02T03:18:32.136Z,6.30
2017-07-02T03:21:00.589Z,6.90
2017-07-02T03:23:29.112Z,4.83
2017-07-02T03:25:57.689Z,6.07
2017-07-02T03:28:26.230Z,5.80
2017-07-02T03:30:54.895Z,7.40
2017-07-02T03:33:23.732Z,6.13
2017-07-02T03:35:52.335Z,5.30
2017-07-02T03:38:20.840Z,5.23
2017-07-02T03:40:49.357Z,5.13
2017-07-02T03:43:18.696Z,5.20
2017-07-02T03:45:47.640Z,5.60
2017-07-02T03:48:16.305Z,5.67
2017-07-02T03:50:44.952Z,5.07
2017-07-02T03:53:13.503Z,5.03
2017-07-02T03:55:42.831Z,6.07
2017-07-02T03:58:11.320Z,6.10
2017-07-02T04:00:39.770Z,5.70
2017-07-02T04:03:08.349Z,5.67
2017-07-02T04:05:36.853Z,6.70
2017-07-02T04:08:05.598Z,5.57
2017-07-02T04:10:34.545Z,6.97
2017-07-02T04:13:03.268Z,7.20
2017-07-02T04:15:31.762Z,7.53
2017-07-02T04:18:00.252Z,8.70
2017-07-02T04:20:28.715Z,8.03
2017-07-02T04:22:57.212Z,6.97
2017-07-02T04:25:25.703Z,6.97
2017-07-02T04:27:54.468Z,7.37
2017-07-02T04:30:22.962Z,7.70
2017-07-02T04:32:51.469Z,7.43
2017-07-02T04:35:21.021Z,8.43
2017-07-02T04:37:49.536Z,8.87
2017-07-02T04:40:18.355Z,8.73
2017-07-02T04:42:46.929Z,10.73
2017-07-02T04:45:15.541Z,10.37
2017-07-02T04:47:44.172Z,9.40
2017-07-02T04:50:12.689Z,9.93
2017-07-02T04:52:42.159Z,9.83
2017-07-02T04:55:10.652Z,9.80
2017-07-02T04:57:39.190Z,9.57
2017-07-02T05:00:08.084Z,9.10
2017-07-02T05:02:36.668Z,8.53
2017-07-02T05:05:05.169Z,8.43
2017-07-02T05:07:33.767Z,8.57
2017-07-02T05:10:02.458Z,7.73
2017-07-02T05:12:30.968Z,8.20
2017-07-02T05:15:00.201Z,6.67
2017-07-02T05:17:29.098Z,8.63
2017-07-02T05:19:57.684Z,7.20
2017-07-02T05:22:26.208Z,6.80
2017-07-02T05:24:54.669Z,7.73
2017-07-02T05:27:23.320Z,6.07
2017-07-02T05:29:52.037Z,6.27
2017-07-02T05:32:20.616Z,6.20
2017-07-02T05:34:50.930Z,7.03
2017-07-02T05:37:19.619Z,6.40
2017-07-02T05:39:48.255Z,6.10
2017-07-02T05:42:17.094Z,7.23
2017-07-02T05:44:45.564Z,6.07
2017-07-02T05:47:14.158Z,6.00
2017-07-02T05:49:42.826Z,6.47
2017-07-02T05:52:11.751Z,6.80
2017-07-02T05:54:40.227Z,6.50
2017-07-02T05:57:08.720Z,6.47
2017-07-02T05:59:37.294Z,7.43
2017-07-02T06:02:05.985Z,8.00
2017-07-02T06:04:34.473Z,7.30
2017-07-02T06:07:03.017Z,7.03
2017-07-02T06:09:31.748Z,6.87
2017-07-02T06:12:00.293Z,7.07
2017-07-02T06:14:28.821Z,7.40
2017-07-02T06:16:57.797Z,8.73
2017-07-02T06:19:26.552Z,7.43
2017-07-02T06:21:55.069Z,7.07
2017-07-02T06:24:23.576Z,7.20
2017-07-02T06:26:52.049Z,7.70
2017-07-02T06:29:20.580Z,8.00
2017-07-02T06:31:49.303Z,6.70
2017-07-02T06:34:17.936Z,8.10
2017-07-02T06:36:46.575Z,7.97
2017-07-02T06:39:15.216Z,7.97
2017-07-02T06:41:44.111Z,7.50
2017-07-02T06:44:12.636Z,5.97
2017-07-02T06:46:41.167Z,7.93
2017-07-02T06:49:09.707Z,7.70
2017-07-02T06:51:38.249Z,7.17
2017-07-02T06:54:06.768Z,7.63
2017-07-02T06:56:35.509Z,6.93
2017-07-02T06:59:04.016Z,6.67
2017-07-02T07:01:33.519Z,7.37
2017-07-02T07:04:04.552Z,6.43
2017-07-02T07:06:34.289Z,7.13
2017-07-02T07:09:03.028Z,5.50
2017-07-02T07:11:32.060Z,6.50
2017-07-02T07:14:00.669Z,6.50
2017-07-02T07:16:29.258Z,6.80
2017-07-02T07:18:57.749Z,6.90
2017-07-02T07:21:26.700Z,7.10
2017-07-02T07:23:55.897Z,6.07
2017-07-02T07:26:24.624Z,5.70
2017-07-02T07:28:53.293Z,5.67
2017-07-02T07:31:21.794Z,6.50
2017-07-02T07:33:50.481Z,6.20
2017-07-02T07:36:19.087Z,5.63
2017-07-02T07:38:47.749Z,5.67
2017-07-02T07:41:16.352Z,5.70
2017-07-02T07:43:44.914Z,5.00
2017-07-02T07:46:14.181Z,5.13
2017-07-02T07:48:43.442Z,5.40
2017-07-02T07:51:12.102Z,6.37
2017-07-02T07:53:40.774Z,5.60
2017-07-02T07:56:09.369Z,5.37
2017-07-02T07:58:37.935Z,6.03
2017-07-02T08:01:06.489Z,5.60
2017-07-02T08:03:35.012Z,5.80
2017-07-02T08:06:03.508Z,6.87
2017-07-02T08:08:32.019Z,6.20
2017-07-02T08:11:00.649Z,6.70
2017-07-02T08:13:30.232Z,6.87
2017-07-02T08:15:58.720Z,6.70
2017-07-02T08:18:27.529Z,6.53
2017-07-02T08:20:56.808Z,6.20
2017-07-02T08:23:25.277Z,5.80
2017-07-02T08:25:54.336Z,6.50
2017-07-02T08:28:22.795Z,7.00
2017-07-02T08:30:52.327Z,6.60
2017-07-02T08:33:20.884Z,6.70
2017-07-02T08:35:51.239Z,6.87
2017-07-02T08:38:20.009Z,7.70
2017-07-02T08:40:49.128Z,6.70
2017-07-02T08:43:18.027Z,8.00
2017-07-02T08:45:47.242Z,8.30
2017-07-02T08:48:16.826Z,6.43
2017-07-02T08:50:49.076Z,7.20
2017-07-02T08:53:18.301Z,8.07
2017-07-02T08:55:47.393Z,6.67
2017-07-02T08:58:16.289Z,7.30
2017-07-02T09:00:46.014Z,7.17
2017-07-02T09:03:15.600Z,8.27
2017-07-02T09:05:44.148Z,8.33
2017-07-02T09:08:12.728Z,8.10
2017-07-02T09:10:41.458Z,7.43
2017-07-02T09:13:10.584Z,7.67
2017-07-02T09:15:39.421Z,7.40
2017-07-02T09:18:07.913Z,7.27
2017-07-02T09:20:36.474Z,7.67
2017-07-02T09:23:04.982Z,7.60
2017-07-02T09:25:33.824Z,6.70
2017-07-02T09:28:02.637Z,7.13
2017-07-02T09:30:31.473Z,6.10
2017-07-02T09:33:00.593Z,6.30
2017-07-02T09:35:29.052Z,5.57
2017-07-02T09:37:57.808Z,6.77
2017-07-02T09:40:27.344Z,5.37
2017-07-02T09:42:55.833Z,5.57
2017-07-02T09:45:24.543Z,6.97
2017-07-02T09:47:53.015Z,7.43
2017-07-02T09:50:21.705Z,6.07
2017-07-02T09:52:50.553Z,7.20
2017-07-02T09:55:19.060Z,7.10
2017-07-02T09:57:47.993Z,5.63
2017-07-02T10:00:17.793Z,6.47
2017-07-02T10:02:46.893Z,6.80
2017-07-02T10:05:16.177Z,5.97
2017-07-02T10:07:44.853Z,5.70
2017-07-02T10:10:13.436Z,6.57
2017-07-02T10:12:42.488Z,5.90
2017-07-02T10:15:11.057Z,5.73
2017-07-02T10:17:39.677Z,5.10
2017-07-02T10:20:08.180Z,5.73
2017-07-02T10:22:36.715Z,5.23
2017-07-02T10:25:05.455Z,3.87
2017-07-02T10:27:34.144Z,3.80
2017-07-02T10:30:02.725Z,4.67
2017-07-02T10:32:31.797Z,4.50
2017-07-02T10:35:00.403Z,4.00
2017-07-02T10:37:28.957Z,3.40
2017-07-02T10:39:57.489Z,3.03
2017-07-02T10:42:25.994Z,3.30
2017-07-02T10:44:54.537Z,2.93
2017-07-02T10:47:23.359Z,2.77
2017-07-02T10:50:06.450Z,3.20
2017-07-02T10:52:34.977Z,3.60
2017-07-02T10:55:03.954Z,3.77
2017-07-02T10:57:32.968Z,3.07
2017-07-02T11:00:01.544Z,4.30
2017-07-02T11:02:30.042Z,4.20
2017-07-02T11:04:58.691Z,5.00
2017-07-02T11:07:27.213Z,4.70
2017-07-02T11:09:55.691Z,5.20
2017-07-02T11:12:24.331Z,5.17
2017-07-02T11:14:52.891Z,5.63
2017-07-02T11:17:22.114Z,3.70
2017-07-02T11:19:50.594Z,3.20
2017-07-02T11:22:19.519Z,3.67
2017-07-02T11:24:47.988Z,3.97
2017-07-02T11:27:16.448Z,2.93
2017-07-02T11:29:44.962Z,2.63
2017-07-02T11:32:13.579Z,2.67
2017-07-02T11:34:42.160Z,2.70
2017-07-02T11:37:10.668Z,2.50
2017-07-02T11:39:39.317Z,2.67
2017-07-02T11:42:07.844Z,2.87
2017-07-02T11:44:36.590Z,2.67
2017-07-02T11:47:05.317Z,2.00
2017-07-02T11:49:34.219Z,1.83
2017-07-02T11:52:02.935Z,1.80
2017-07-02T11:54:31.486Z,1.50
2017-07-02T11:57:00.161Z,1.67
2017-07-02T11:59:29.544Z,1.70
2017-07-02T12:01:58.021Z,1.90
2017-07-02T12:04:26.532Z,1.60
2017-07-02T12:06:55.930Z,1.33
2017-07-02T12:09:25.755Z,1.50
2017-07-02T12:11:54.383Z,1.60
2017-07-02T12:14:23.117Z,1.33
2017-07-02T12:16:52.435Z,1.57
2017-07-02T12:19:20.974Z,1.40
2017-07-02T12:21:49.802Z,1.30
2017-07-02T12:24:18.501Z,1.80
2017-07-02T12:26:47.300Z,1.50
2017-07-02T12:29:16.092Z,2.00
2017-07-02T12:31:45.004Z,1.57
2017-07-02T12:34:14.496Z,1.93
2017-07-02T12:36:43.205Z,2.00
2017-07-02T12:39:12.032Z,1.60
2017-07-02T12:41:41.575Z,1.87
2017-07-02T12:44:10.268Z,2.10
2017-07-02T12:46:38.866Z,2.07
2017-07-02T12:49:07.735Z,1.90
2017-07-02T12:51:36.269Z,1.20
2017-07-02T12:54:05.039Z,2.07
2017-07-02T12:56:33.629Z,1.40
2017-07-02T12:59:02.283Z,1.53
2017-07-02T13:01:30.898Z,1.40
2017-07-02T13:03:59.390Z,1.53
2017-07-02T13:06:27.930Z,1.80
2017-07-02T13:08:57.439Z,1.60
2017-07-02T13:11:26.025Z,1.40
2017-07-02T13:13:54.872Z,1.50
2017-07-02T13:16:24.365Z,1.40
2017-07-02T13:18:52.910Z,1.80
2017-07-02T13:21:21.497Z,1.67
2017-07-02T13:23:50.187Z,1.90
2017-07-02T13:26:20.153Z,2.10
2017-07-02T13:28:48.685Z,1.60
2017-07-02T13:31:17.201Z,1.70
2017-07-02T13:33:47.569Z,2.20
2017-07-02T13:36:16.805Z,1.83
2017-07-02T13:38:45.373Z,2.47
2017-07-02T13:41:13.869Z,1.40
2017-07-02T13:43:42.835Z,2.20
2017-07-02T13:46:11.497Z,1.60
2017-07-02T13:48:40.840Z,2.03
2017-07-02T13:51:09.332Z,1.53
2017-07-02T13:53:39.580Z,2.13
2017-07-02T13:56:08.090Z,1.87
2017-07-02T13:58:44.297Z,1.80
2017-07-02T14:01:15.125Z,1.53
2017-07-02T14:03:45.710Z,2.20
2017-07-02T14:06:15.190Z,2.27
2017-07-02T14:08:44.420Z,2.33
2017-07-02T14:11:13.426Z,1.60
2017-07-02T14:13:51.239Z,2.20
2017-07-02T14:16:20.009Z,1.70
2017-07-02T14:18:49.359Z,1.93
2017-07-02T14:21:17.860Z,2.43
2017-07-02T14:23:46.960Z,2.23
2017-07-02T14:26:15.635Z,2.80
2017-07-02T14:28:44.404Z,2.60
2017-07-02T14:31:13.059Z,2.47
2017-07-02T14:33:41.657Z,2.53
2017-07-02T14:36:10.150Z,2.20
2017-07-02T14:38:38.825Z,2.10
2017-07-02T14:41:07.882Z,2.97
2017-07-02T14:43:36.441Z,2.10
2017-07-02T14:46:04.918Z,2.47
2017-07-02T14:48:33.649Z,2.00
2017-07-02T14:51:02.864Z,2.50
2017-07-02T14:53:32.424Z,3.53
2017-07-02T14:56:01.035Z,2.73
2017-07-02T14:58:30.944Z,1.97
2017-07-02T15:00:59.794Z,1.60
2017-07-02T15:03:28.555Z,2.20
2017-07-02T15:05:57.594Z,2.50
2017-07-02T15:08:26.518Z,2.17
2017-07-02T15:10:55.305Z,2.40
2017-07-02T15:13:24.017Z,1.50
2017-07-02T15:15:53.353Z,1.90
2017-07-02T15:18:22.074Z,2.00
2017-07-02T15:20:50.750Z,2.20
2017-07-02T15:23:21.674Z,1.87
2017-07-02T15:25:50.668Z,1.60
2017-07-02T15:28:19.182Z,1.83
2017-07-02T15:30:47.686Z,1.70
2017-07-02T15:33:17.026Z,1.53
2017-07-02T15:35:45.607Z,1.20
2017-07-02T15:38:14.305Z,1.50
2017-07-02T15:40:42.809Z,1.47
2017-07-02T15:43:12.849Z,1.87
2017-07-02T15:45:41.478Z,1.57
2017-07-02T15:48:10.023Z,1.57
2017-07-02T15:50:38.692Z,1.57
2017-07-02T15:53:07.577Z,1.90
2017-07-02T15:55:36.084Z,1.23
2017-07-02T15:58:04.920Z,1.93
2017-07-02T16:00:33.586Z,1.93
2017-07-02T16:03:03.294Z,1.20
2017-07-02T16:05:32.565Z,0.97
2017-07-02T16:08:01.560Z,0.73
2017-07-02T16:10:30.366Z,1.57
2017-07-02T16:12:59.805Z,1.07
2017-07-02T16:15:28.364Z,1.13
2017-07-02T16:17:58.075Z,1.17
2017-07-02T16:20:27.844Z,0.87
2017-07-02T16:22:56.360Z,1.30
2017-07-02T16:25:25.219Z,1.10
2017-07-02T16:27:53.819Z,0.70
2017-07-02T16:30:22.770Z,1.07
2017-07-02T16:32:51.457Z,1.53
2017-07-02T16:35:20.397Z,1.27
2017-07-02T16:37:48.934Z,1.30
2017-07-02T16:40:17.619Z,1.40
2017-07-02T16:42:46.196Z,0.80
2017-07-02T16:45:14.786Z,1.10
2017-07-02T16:47:43.385Z,1.00
2017-07-02T16:50:11.921Z,1.00
2017-07-02T16:52:40.452Z,1.10
2017-07-02T16:55:09.574Z,1.53
2017-07-02T16:57:38.327Z,1.10
2017-07-02T17:00:06.825Z,1.33
2017-07-02T17:02:35.427Z,0.93
2017-07-02T17:05:04.220Z,1.57
2017-07-02T17:07:32.965Z,1.60
2017-07-02T17:10:03.991Z,1.20
2017-07-02T17:12:32.931Z,1.03
2017-07-02T17:15:02.392Z,1.03
2017-07-02T17:17:31.031Z,1.27
2017-07-02T17:19:59.927Z,1.20
2017-07-02T17:22:29.837Z,1.33
2017-07-02T17:24:59.900Z,1.40
2017-07-02T17:27:29.116Z,0.80
2017-07-02T17:29:57.649Z,1.27
2017-07-02T17:32:26.877Z,1.20
2017-07-02T17:34:55.697Z,1.50
2017-07-02T17:37:24.340Z,1.37
2017-07-02T17:39:52.972Z,1.10
2017-07-02T17:42:22.254Z,1.60
2017-07-02T17:44:50.829Z,1.60
2017-07-02T17:47:19.386Z,1.23
2017-07-02T17:49:50.758Z,1.63
2017-07-02T17:52:19.479Z,1.83
2017-07-02T17:54:48.062Z,2.10
2017-07-02T17:57:17.167Z,1.70
2017-07-02T17:59:46.051Z,1.80
2017-07-02T18:02:14.745Z,1.00
2017-07-02T18:04:44.144Z,1.97
2017-07-02T18:07:13.443Z,1.63
2017-07-02T18:09:42.445Z,1.37
2017-07-02T18:12:11.330Z,1.83
2017-07-02T18:14:40.736Z,1.50
2017-07-02T18:17:09.731Z,1.30
2017-07-02T18:19:38.873Z,1.80
2017-07-02T18:22:07.822Z,1.80
2017-07-02T18:24:36.609Z,1.30
2017-07-02T18:27:05.605Z,2.60
2017-07-02T18:29:34.203Z,1.30
2017-07-02T18:32:03.900Z,1.63
2017-07-02T18:34:32.793Z,1.90
2017-07-02T18:37:01.790Z,1.57
2017-07-02T18:39:30.471Z,1.97
2017-07-02T18:41:59.678Z,1.87
2017-07-02T18:44:28.564Z,1.87
2017-07-02T18:46:57.660Z,2.03
2017-07-02T18:49:26.862Z,1.77
2017-07-02T18:51:55.854Z,2.00
2017-07-02T18:54:24.847Z,2.10
2017-07-02T18:56:54.050Z,1.70
2017-07-02T18:59:24.375Z,1.70
2017-07-02T19:01:53.889Z,2.00
2017-07-02T19:04:23.136Z,1.97
2017-07-02T19:06:52.203Z,1.40
2017-07-02T19:09:22.399Z,1.20
2017-07-02T19:11:52.014Z,1.73
2017-07-02T19:14:20.908Z,1.60
2017-07-02T19:16:49.694Z,2.10
2017-07-02T19:19:18.800Z,1.93
2017-07-02T19:21:47.914Z,1.63
2017-07-02T19:24:16.573Z,1.80
2017-07-02T19:26:47.614Z,1.63
2017-07-02T19:29:16.406Z,1.93
2017-07-02T19:31:45.396Z,2.77
2017-07-02T19:34:14.522Z,1.90
2017-07-02T19:36:43.287Z,2.17
2017-07-02T19:39:12.280Z,1.47
2017-07-02T19:41:41.827Z,1.83
2017-07-02T19:44:10.408Z,1.77
2017-07-02T19:46:38.962Z,2.10
2017-07-02T19:49:07.872Z,1.80
2017-07-02T19:51:36.715Z,1.70
2017-07-02T19:54:06.087Z,1.50
2017-07-02T19:56:34.729Z,2.43
2017-07-02T19:59:03.414Z,2.20
2017-07-02T20:01:32.043Z,1.70
2017-07-02T20:04:00.627Z,1.97
2017-07-02T20:06:29.269Z,1.40
2017-07-02T20:08:57.954Z,1.77
2017-07-02T20:11:27.234Z,1.87
2017-07-02T20:13:55.981Z,1.80
2017-07-02T20:16:24.655Z,1.47
2017-07-02T20:18:53.324Z,1.70
2017-07-02T20:21:22.491Z,2.17
2017-07-02T20:23:51.821Z,1.73
2017-07-02T20:26:20.682Z,1.53
2017-07-02T20:28:49.297Z,1.97
2017-07-02T20:31:18.482Z,1.60
2017-07-02T20:33:48.374Z,2.30
2017-07-02T20:36:17.311Z,1.53
2017-07-02T20:38:47.042Z,1.87
2017-07-02T20:41:15.587Z,1.90
2017-07-02T20:43:44.130Z,2.30
2017-07-02T20:46:12.644Z,2.07
2017-07-02T20:48:41.163Z,1.80
2017-07-02T20:51:10.737Z,1.53
2017-07-02T20:53:40.172Z,1.60
2017-07-02T20:56:09.031Z,2.43
2017-07-02T20:58:38.892Z,1.50
2017-07-02T21:01:07.864Z,1.93
2017-07-02T21:03:36.507Z,2.40
2017-07-02T21:06:05.217Z,2.00
2017-07-02T21:08:34.186Z,2.00
2017-07-02T21:11:03.460Z,1.67
2017-07-02T21:13:31.991Z,2.50
2017-07-02T21:16:01.416Z,1.87
2017-07-02T21:18:30.042Z,2.03
2017-07-02T21:21:00.943Z,1.73
2017-07-02T21:23:29.609Z,1.80
2017-07-02T21:25:58.989Z,2.07
2017-07-02T21:28:27.516Z,1.77
2017-07-02T21:30:56.229Z,1.83
2017-07-02T21:33:24.745Z,1.63
2017-07-02T21:35:53.265Z,2.03
2017-07-02T21:38:21.764Z,1.60
2017-07-02T21:40:51.613Z,2.30
2017-07-02T21:43:20.150Z,2.53
2017-07-02T21:45:48.790Z,2.07
2017-07-02T21:48:17.365Z,3.07
2017-07-02T21:50:45.934Z,2.10
2017-07-02T21:53:14.468Z,1.80
2017-07-02T21:55:43.693Z,2.43
2017-07-02T21:58:12.586Z,2.33
2017-07-02T22:00:41.196Z,1.67
2017-07-02T22:03:10.070Z,2.00
2017-07-02T22:05:38.665Z,2.00
2017-07-02T22:08:08.615Z,1.57
2017-07-02T22:10:37.457Z,1.80
2017-07-02T22:13:06.156Z,1.90
2017-07-02T22:15:34.788Z,2.10
2017-07-02T22:18:03.411Z,2.03
2017-07-02T22:20:32.118Z,1.80
2017-07-02T22:23:00.638Z,2.87
2017-07-02T22:25:30.494Z,1.57
2017-07-02T22:27:59.075Z,2.40
2017-07-02T22:30:27.665Z,2.67
2017-07-02T22:32:56.358Z,2.10
2017-07-02T22:35:25.049Z,1.70
2017-07-02T22:37:54.587Z,2.13
2017-07-02T22:40:24.212Z,1.80
2017-07-02T22:42:53.162Z,2.73
2017-07-02T22:45:21.914Z,1.67
2017-07-02T22:47:51.408Z,1.70
2017-07-02T22:50:20.744Z,2.37
2017-07-02T22:52:49.519Z,1.93
2017-07-02T22:55:18.432Z,2.37
2017-07-02T22:57:47.109Z,1.77
2017-07-02T23:00:15.798Z,2.20
2017-07-02T23:02:44.702Z,2.10
2017-07-02T23:05:13.463Z,1.60
2017-07-02T23:07:43.248Z,1.63
2017-07-02T23:10:11.818Z,1.80
2017-07-02T23:12:40.446Z,2.17
2017-07-02T23:15:08.957Z,2.17
2017-07-02T23:17:37.483Z,2.10
2017-07-02T23:20:06.108Z,2.03
2017-07-02T23:22:34.906Z,2.63
2017-07-02T23:25:03.455Z,2.37
2017-07-02T23:27:34.108Z,2.13
2017-07-02T23:30:02.641Z,2.17
2017-07-02T23:32:31.175Z,2.77
2017-07-02T23:34:59.789Z,2.33
2017-07-02T23:37:28.632Z,1.40
2017-07-02T23:39:57.738Z,1.63
2017-07-02T23:42:27.066Z,2.87
2017-07-02T23:44:55.706Z,2.73
2017-07-02T23:47:24.193Z,2.50
2017-07-02T23:49:53.213Z,2.57
2017-07-02T23:52:21.752Z,2.30
2017-07-02T23:54:50.311Z,1.93
2017-07-02T23:57:18.858Z,2.50
2017-07-02T23:59:48.262Z,2.07
